Time;durP1;ratioP1;P1;durP2;ratioP2;P2;SDS_P1;SDS_P2;PMS_P1;PMS_P2;Temp;Humidity;BMP_temperature;BMP_pressure;BME280_temperature;BME280_humidity;BME280_pressure;Samples;Min_cycle;Max_cycle;Signal;HPM_P1;HPM_P2
2022/07/05 00:01:45;;;;;;;2.47;1.63;;;;;;;;;;5052927;28;20435;-59
2022/07/05 00:04:34;;;;;;;4.03;1.20;;;;;;;;;;5052614;28;20040;-59
2022/07/05 00:07:19;;;;;;;2.28;1.58;;;;;;;;;;5053804;28;20387;-59
2022/07/05 00:09:58;;;;;;;2.38;1.45;;;;;;;;;;5054037;28;20029;-59
2022/07/05 00:12:29;;;;;;;2.60;1.63;;;;;;;;;;5053577;28;20037;-59
2022/07/05 00:18:01;;;;;;;2.55;1.52;;;;;;;;;;5033496;28;20033;-58
2022/07/05 00:20:34;;;;;;;2.28;1.30;;;;;;;;;;5033062;28;20306;-59
2022/07/05 00:23:07;;;;;;;2.25;1.30;;;;;;;;;;5033405;28;20467;-59
2022/07/05 00:25:45;;;;;;;2.08;1.40;;;;;;;;;;5032983;28;20037;-59
2022/07/05 00:28:21;;;;;;;4.30;1.88;;;;;;;;;;5033804;28;20048;-59
2022/07/05 00:33:52;;;;;;;2.63;1.52;;;;;;;;;;5014069;28;20025;-59
2022/07/05 00:36:19;;;;;;;2.65;1.48;;;;;;;;;;5033678;28;20102;-59
2022/07/05 00:39:11;;;;;;;2.05;1.30;;;;;;;;;;5030534;28;20033;-59
2022/07/05 00:41:40;;;;;;;2.03;1.27;;;;;;;;;;5032292;28;20665;-59
2022/07/05 00:44:14;;;;;;;2.03;1.38;;;;;;;;;;5033661;28;20021;-59
2022/07/05 00:46:42;;;;;;;2.15;1.45;;;;;;;;;;5033340;28;20085;-59
2022/07/05 00:49:32;;;;;;;4.13;1.63;;;;;;;;;;5033095;28;20030;-59
2022/07/05 00:52:17;;;;;;;2.30;1.50;;;;;;;;;;5036164;28;20434;-59
2022/07/05 00:54:59;;;;;;;3.60;1.50;;;;;;;;;;5036975;28;20029;-59
2022/07/05 00:57:31;;;;;;;1.90;1.42;;;;;;;;;;5037732;28;20029;-59
2022/07/05 01:00:11;;;;;;;3.17;1.38;;;;;;;;;;5036414;28;20029;-59
2022/07/05 01:02:49;;;;;;;3.72;1.52;;;;;;;;;;5037439;28;20025;-59
2022/07/05 01:05:19;;;;;;;3.45;1.50;;;;;;;;;;5036614;28;20031;-59
2022/07/05 01:08:05;;;;;;;3.45;1.27;;;;;;;;;;5037242;28;20021;-59
2022/07/05 01:10:44;;;;;;;3.22;1.30;;;;;;;;;;5035378;28;20021;-59
2022/07/05 01:13:10;;;;;;;2.00;1.20;;;;;;;;;;5037399;28;20038;-60
2022/07/05 01:15:37;;;;;;;2.90;1.73;;;;;;;;;;5048360;28;20052;-59
2022/07/05 01:18:06;;;;;;;2.47;1.50;;;;;;;;;;5057126;28;20036;-59
2022/07/05 01:20:34;;;;;;;2.05;1.45;;;;;;;;;;5054826;28;20052;-59
2022/07/05 01:23:09;;;;;;;2.25;1.02;;;;;;;;;;5056650;28;20033;-59
2022/07/05 01:26:04;;;;;;;3.15;1.30;;;;;;;;;;5056792;28;20033;-60
2022/07/05 01:28:43;;;;;;;2.33;1.30;;;;;;;;;;5057116;28;20059;-59
2022/07/05 01:34:18;;;;;;;2.92;1.90;;;;;;;;;;5056402;28;20021;-59
2022/07/05 01:36:53;;;;;;;1.85;1.05;;;;;;;;;;5057094;28;20474;-59
2022/07/05 01:42:29;;;;;;;1.75;1.20;;;;;;;;;;5053202;28;20033;-59
2022/07/05 01:44:57;;;;;;;2.80;1.10;;;;;;;;;;5056643;28;20047;-59
2022/07/05 01:47:38;;;;;;;3.20;1.17;;;;;;;;;;5056965;28;20017;-59
2022/07/05 01:50:19;;;;;;;4.03;1.50;;;;;;;;;;5054673;28;20628;-59
2022/07/05 01:53:12;;;;;;;2.55;1.58;;;;;;;;;;5054359;28;20173;-59
2022/07/05 01:55:54;;;;;;;6.10;1.77;;;;;;;;;;5056213;28;20024;-59
2022/07/05 01:58:44;;;;;;;5.13;1.67;;;;;;;;;;5054968;28;20036;-59
2022/07/05 02:04:10;;;;;;;1.65;0.90;;;;;;;;;;5053862;28;20037;-59
2022/07/05 02:06:56;;;;;;;2.35;1.65;;;;;;;;;;5055769;28;20025;-59
2022/07/05 02:09:48;;;;;;;4.90;1.40;;;;;;;;;;5056408;28;20025;-60
2022/07/05 02:12:18;;;;;;;2.55;1.40;;;;;;;;;;5056229;28;20041;-59
2022/07/05 02:17:44;;;;;;;1.70;1.17;;;;;;;;;;5030251;28;20029;-59
2022/07/05 02:20:23;;;;;;;2.53;1.58;;;;;;;;;;5035967;28;20064;-59
2022/07/05 02:22:53;;;;;;;3.50;1.77;;;;;;;;;;5036498;28;20045;-59
2022/07/05 02:25:31;;;;;;;2.30;1.48;;;;;;;;;;5035528;28;20025;-59
2022/07/05 02:28:14;;;;;;;;;;;;;;;;;;;;;
2022/07/05 02:30:59;;;;;;;2.50;1.63;;;;;;;;;;5032867;28;20033;-59
2022/07/05 02:33:46;;;;;;;4.32;2.00;;;;;;;;;;5035449;28;20394;-59
2022/07/05 02:36:18;;;;;;;3.75;2.50;;;;;;;;;;5033639;28;20040;-59
2022/07/05 02:39:10;;;;;;;2.95;2.13;;;;;;;;;;5034714;28;20109;-59
2022/07/05 02:41:53;;;;;;;3.53;1.95;;;;;;;;;;5035070;28;20530;-59
2022/07/05 02:44:19;;;;;;;3.83;2.50;;;;;;;;;;5035392;28;20426;-59
2022/07/05 02:46:55;;;;;;;3.35;1.98;;;;;;;;;;5035916;28;20116;-59
2022/07/05 02:49:24;;;;;;;4.25;3.03;;;;;;;;;;5036173;28;20040;-59
2022/07/05 02:54:52;;;;;;;3.47;2.58;;;;;;;;;;5034503;28;20071;-59
2022/07/05 02:57:19;;;;;;;3.22;2.58;;;;;;;;;;5034719;28;20403;-59
2022/07/05 02:59:53;;;;;;;2.85;1.85;;;;;;;;;;5035602;28;20471;-59
2022/07/05 03:02:29;;;;;;;4.75;2.80;;;;;;;;;;5033965;28;20065;-59
2022/07/05 03:05:06;;;;;;;2.78;1.92;;;;;;;;;;5035683;28;20109;-59
2022/07/05 03:10:41;;;;;;;4.75;2.60;;;;;;;;;;5032630;28;20033;-59
2022/07/05 03:13:17;;;;;;;6.53;2.53;;;;;;;;;;5032900;28;20057;-59
2022/07/05 03:15:47;;;;;;;6.68;2.50;;;;;;;;;;5047051;28;20039;-59
2022/07/05 03:18:22;;;;;;;3.77;3.07;;;;;;;;;;5055257;28;20409;-59
2022/07/05 03:21:16;;;;;;;7.60;2.80;;;;;;;;;;5054084;28;20419;-59
2022/07/05 03:24:11;;;;;;;3.17;2.60;;;;;;;;;;5054595;28;20055;-59
2022/07/05 03:26:50;;;;;;;4.28;2.65;;;;;;;;;;5053534;28;20124;-59
2022/07/05 03:29:37;;;;;;;3.92;2.88;;;;;;;;;;5055477;28;20016;-59
2022/07/05 03:32:15;;;;;;;3.60;2.30;;;;;;;;;;5039286;28;20132;-59
2022/07/05 03:34:50;;;;;;;4.20;2.88;;;;;;;;;;5030093;28;20051;-59
2022/07/05 03:37:32;;;;;;;;;;;;;;;;;;;;;
2022/07/05 03:40:02;;;;;;;3.53;2.17;;;;;;;;;;5024386;28;20036;-59
2022/07/05 03:42:46;;;;;;;2.90;2.17;;;;;;;;;;5032524;28;20091;-59
2022/07/05 03:45:23;;;;;;;2.53;2.10;;;;;;;;;;5030736;28;20034;-59
2022/07/05 03:47:58;;;;;;;4.20;2.35;;;;;;;;;;5028308;28;20041;-59
2022/07/05 03:50:27;;;;;;;3.63;2.00;;;;;;;;;;5031494;28;20021;-59
2022/07/05 03:53:22;;;;;;;2.87;2.23;;;;;;;;;;5032080;28;20076;-59
2022/07/05 03:55:59;;;;;;;;;;;;;;;;;;;;;
2022/07/05 03:58:31;;;;;;;3.47;2.55;;;;;;;;;;5032015;28;20022;-59
2022/07/05 04:01:23;;;;;;;3.60;2.10;;;;;;;;;;5030699;28;20025;-59
2022/07/05 04:04:04;;;;;;;3.03;2.28;;;;;;;;;;5026766;28;20050;-59
2022/07/05 04:06:50;;;;;;;3.60;2.10;;;;;;;;;;5032307;28;20051;-59
2022/07/05 04:09:35;;;;;;;3.50;2.15;;;;;;;;;;5029454;28;20264;-59
2022/07/05 04:12:05;;;;;;;3.05;1.98;;;;;;;;;;5030992;28;20069;-59
2022/07/05 04:15:02;;;;;;;;;;;;;;;;;;;;;
2022/07/05 04:23:34;;;;;;;2.80;2.00;;;;;;;;;;5030478;28;20041;-59
2022/07/05 04:26:10;;;;;;;3.65;2.10;;;;;;;;;;4989070;28;20030;-59
2022/07/05 04:28:39;;;;;;;2.83;1.73;;;;;;;;;;5015489;28;20365;-59
2022/07/05 04:31:08;;;;;;;2.42;1.63;;;;;;;;;;5029256;28;20022;-59
2022/07/05 04:33:55;;;;;;;3.25;1.63;;;;;;;;;;5030745;28;20452;-59
2022/07/05 04:36:30;;;;;;;2.22;1.60;;;;;;;;;;5019972;28;20152;-59
2022/07/05 04:39:23;;;;;;;3.00;1.98;;;;;;;;;;5031820;28;20055;-59
2022/07/05 04:42:16;;;;;;;2.72;1.73;;;;;;;;;;5024799;28;20110;-59
2022/07/05 04:44:57;;;;;;;2.78;1.80;;;;;;;;;;5024694;28;20117;-59
2022/07/05 04:47:26;;;;;;;3.92;2.10;;;;;;;;;;5026563;28;20100;-59
2022/07/05 04:49:59;;;;;;;2.83;1.45;;;;;;;;;;5029264;28;20021;-59
2022/07/05 04:52:30;;;;;;;3.65;2.05;;;;;;;;;;5022993;28;20042;-59
2022/07/05 04:58:30;;;;;;;2.13;1.20;;;;;;;;;;5025364;28;20029;-59
2022/07/05 05:01:05;;;;;;;3.70;1.50;;;;;;;;;;5020476;28;20084;-59
2022/07/05 05:03:35;;;;;;;2.08;1.30;;;;;;;;;;5027806;28;20203;-59
2022/07/05 05:06:31;;;;;;;3.80;0.95;;;;;;;;;;5029211;28;20065;-59
2022/07/05 05:09:24;;;;;;;1.67;0.95;;;;;;;;;;4993941;28;20035;-59
2022/07/05 05:11:58;;;;;;;4.15;1.15;;;;;;;;;;5022629;28;20041;-59
2022/07/05 05:14:27;;;;;;;2.13;0.95;;;;;;;;;;5046484;28;20040;-59
2022/07/05 05:17:25;;;;;;;2.35;1.15;;;;;;;;;;5022748;28;20025;-59
2022/07/05 05:20:32;;;;;;;1.83;0.95;;;;;;;;;;5029426;28;20132;-59
2022/07/05 05:26:06;;;;;;;2.60;1.15;;;;;;;;;;5026265;28;20021;-59
2022/07/05 05:28:48;;;;;;;5.47;1.17;;;;;;;;;;5030402;28;20370;-59
2022/07/05 05:31:43;;;;;;;2.65;1.00;;;;;;;;;;5025231;28;20021;-59
2022/07/05 05:37:32;;;;;;;3.38;1.17;;;;;;;;;;5032313;28;20045;-59
2022/07/05 05:40:08;;;;;;;1.75;1.00;;;;;;;;;;5033939;28;20029;-59
2022/07/05 05:45:38;;;;;;;1.27;0.60;;;;;;;;;;5021081;28;20026;-59
2022/07/05 05:48:15;;;;;;;9.20;1.23;;;;;;;;;;5031187;28;20420;-59
2022/07/05 05:50:51;;;;;;;2.33;1.15;;;;;;;;;;5044626;28;20033;-59
2022/07/05 05:53:30;;;;;;;2.95;1.20;;;;;;;;;;5033244;28;20041;-59
2022/07/05 05:56:06;;;;;;;3.20;1.23;;;;;;;;;;5034140;28;20529;-59
2022/07/05 05:58:43;;;;;;;2.05;1.27;;;;;;;;;;5033541;28;20472;-60
2022/07/05 06:01:12;;;;;;;3.22;1.25;;;;;;;;;;5016203;28;20064;-59
2022/07/05 06:03:48;;;;;;;2.92;1.17;;;;;;;;;;5030063;28;20034;-59
2022/07/05 06:06:28;;;;;;;2.33;0.90;;;;;;;;;;5032092;28;20059;-59
2022/07/05 06:09:35;;;;;;;2.90;1.00;;;;;;;;;;5026482;28;20028;-59
2022/07/05 06:12:07;;;;;;;1.00;0.60;;;;;;;;;;5031932;28;20030;-59
2022/07/05 06:14:39;;;;;;;1.42;0.82;;;;;;;;;;5035786;28;20382;-59
2022/07/05 06:17:14;;;;;;;3.53;1.45;;;;;;;;;;5050878;28;20032;-59
2022/07/05 06:20:06;;;;;;;2.35;1.00;;;;;;;;;;5032158;28;20021;-59
2022/07/05 06:22:41;;;;;;;5.47;1.50;;;;;;;;;;5025409;28;20026;-59
2022/07/05 06:28:33;;;;;;;3.67;1.00;;;;;;;;;;5033762;28;20055;-59
2022/07/05 06:31:02;;;;;;;1.83;1.10;;;;;;;;;;5029682;28;20033;-60
2022/07/05 06:33:40;;;;;;;1.88;1.00;;;;;;;;;;5031586;28;20472;-60
2022/07/05 06:36:12;;;;;;;1.77;1.10;;;;;;;;;;5033030;28;20136;-60
2022/07/05 06:38:46;;;;;;;1.50;0.80;;;;;;;;;;5033663;28;20033;-61
2022/07/05 06:41:25;;;;;;;3.78;1.00;;;;;;;;;;5031213;28;20413;-60
2022/07/05 06:44:19;;;;;;;3.45;1.17;;;;;;;;;;5032165;28;20061;-60
2022/07/05 06:47:16;;;;;;;2.35;1.17;;;;;;;;;;5033510;28;20029;-60
2022/07/05 06:49:45;;;;;;;2.10;1.00;;;;;;;;;;5025147;28;20125;-60
2022/07/05 06:52:20;;;;;;;2.90;1.20;;;;;;;;;;5032677;28;20479;-60
2022/07/05 06:55:00;;;;;;;1.70;1.00;;;;;;;;;;5032058;28;20030;-60
2022/07/05 06:57:27;;;;;;;2.80;1.10;;;;;;;;;;5028178;28;20029;-60
2022/07/05 07:00:14;;;;;;;3.70;1.20;;;;;;;;;;5024345;28;20022;-60
2022/07/05 07:03:09;;;;;;;3.13;1.42;;;;;;;;;;5029566;28;20041;-60
2022/07/05 07:05:41;;;;;;;2.25;1.30;;;;;;;;;;5028204;28;20460;-60
2022/07/05 07:11:06;;;;;;;1.88;0.85;;;;;;;;;;5035009;28;20028;-60
2022/07/05 07:13:39;;;;;;;2.05;1.20;;;;;;;;;;5035676;28;20033;-60
2022/07/05 07:19:00;;;;;;;2.40;1.20;;;;;;;;;;5032487;28;20025;-60
2022/07/05 07:21:39;;;;;;;2.40;1.33;;;;;;;;;;5029511;28;20029;-61
2022/07/05 07:24:13;;;;;;;4.18;1.15;;;;;;;;;;5011815;28;20498;-60
2022/07/05 07:29:56;;;;;;;1.33;0.63;;;;;;;;;;5022395;28;20064;-60
2022/07/05 07:32:31;;;;;;;4.82;1.70;;;;;;;;;;5032359;28;20406;-60
2022/07/05 07:35:10;;;;;;;2.88;1.30;;;;;;;;;;5028126;28;20048;-60
2022/07/05 07:37:48;;;;;;;1.58;0.70;;;;;;;;;;5032675;28;20025;-60
2022/07/05 07:40:41;;;;;;;2.60;0.88;;;;;;;;;;5030372;28;20049;-60
2022/07/05 07:43:16;;;;;;;3.10;0.85;;;;;;;;;;5032114;28;20092;-60
2022/07/05 07:45:56;;;;;;;1.98;0.90;;;;;;;;;;5031289;28;20045;-60
2022/07/05 07:51:27;;;;;;;4.05;1.60;;;;;;;;;;5029646;28;20041;-60
2022/07/05 07:54:05;;;;;;;1.65;0.70;;;;;;;;;;5032725;28;20581;-60
2022/07/05 07:56:41;;;;;;;4.35;1.05;;;;;;;;;;5032495;28;20060;-60
2022/07/05 07:59:13;;;;;;;1.70;0.73;;;;;;;;;;5031793;28;20064;-60
2022/07/05 08:01:40;;;;;;;1.70;0.82;;;;;;;;;;5030894;28;20467;-60
2022/07/05 08:04:20;;;;;;;2.63;1.17;;;;;;;;;;5056875;28;20033;-60
2022/07/05 08:06:52;;;;;;;;;;;;;;;;;;5027616;28;20064;-60
2022/07/05 08:09:27;;;;;;;1.67;0.80;;;;;;;;;;5030652;28;20416;-60
2022/07/05 08:12:19;;;;;;;3.65;1.00;;;;;;;;;;5031069;28;20140;-60
2022/07/05 08:14:51;;;;;;;1.33;0.70;;;;;;;;;;5014153;28;20173;-60
2022/07/05 08:17:23;;;;;;;2.53;1.05;;;;;;;;;;5040132;28;20030;-60
2022/07/05 08:22:54;;;;;;;2.17;1.23;;;;;;;;;;5031637;28;20044;-60
2022/07/05 08:25:29;;;;;;;2.28;1.02;;;;;;;;;;5032206;28;20067;-61
2022/07/05 08:28:07;;;;;;;2.05;0.88;;;;;;;;;;5030761;28;20048;-61
2022/07/05 08:31:00;;;;;;;2.30;1.00;;;;;;;;;;5028438;28;20079;-60
2022/07/05 08:33:33;;;;;;;1.42;0.77;;;;;;;;;;5028635;28;20495;-60
2022/07/05 08:41:59;;;;;;;4.63;0.93;;;;;;;;;;5030948;28;20394;-60
2022/07/05 08:44:28;;;;;;;4.93;1.10;;;;;;;;;;5027274;28;20291;-61
2022/07/05 08:47:01;;;;;;;1.70;1.00;;;;;;;;;;5010244;28;20084;-60
2022/07/05 08:52:38;;;;;;;4.80;0.95;;;;;;;;;;5011907;28;20046;-60
2022/07/05 08:55:23;;;;;;;1.35;0.90;;;;;;;;;;5011921;28;20029;-60
2022/07/05 09:00:59;;;;;;;2.08;1.10;;;;;;;;;;5018516;28;20039;-60
2022/07/05 09:03:49;;;;;;;3.90;0.77;;;;;;;;;;5031443;28;20025;-61
2022/07/05 09:06:25;;;;;;;1.63;0.90;;;;;;;;;;5026131;28;20025;-61
2022/07/05 09:09:23;;;;;;;;;;;;;;;;;;;;;
2022/07/05 09:11:56;;;;;;;2.03;0.80;;;;;;;;;;5032567;28;20522;-60
2022/07/05 09:14:26;;;;;;;3.17;1.10;;;;;;;;;;5035587;28;20031;-60
2022/07/05 09:16:53;;;;;;;2.45;0.70;;;;;;;;;;5053870;28;20029;-61
2022/07/05 09:19:22;;;;;;;3.63;1.20;;;;;;;;;;5051624;28;20493;-61
2022/07/05 09:22:10;;;;;;;3.05;0.90;;;;;;;;;;5033619;28;20034;-60
2022/07/05 09:24:54;;;;;;;1.48;0.70;;;;;;;;;;5033931;28;20032;-60
2022/07/05 09:27:29;;;;;;;4.40;1.00;;;;;;;;;;5033781;28;20101;-61
2022/07/05 09:30:04;;;;;;;3.75;1.30;;;;;;;;;;5021491;28;20048;-57
2022/07/05 09:32:37;;;;;;;1.73;0.70;;;;;;;;;;5029523;28;20365;-59
2022/07/05 09:35:30;;;;;;;1.95;0.90;;;;;;;;;;5026585;28;20033;-58
2022/07/05 09:38:03;;;;;;;1.23;0.65;;;;;;;;;;5023942;28;20025;-61
2022/07/05 09:40:36;;;;;;;1.30;0.80;;;;;;;;;;5023451;28;20117;-59
2022/07/05 09:43:34;;;;;;;2.25;0.80;;;;;;;;;;5025461;28;20169;-59
2022/07/05 09:46:12;;;;;;;1.30;0.80;;;;;;;;;;5006061;28;20154;-58
2022/07/05 09:49:03;;;;;;;2.55;0.90;;;;;;;;;;5011481;28;20679;-58
2022/07/05 09:51:57;;;;;;;2.08;0.80;;;;;;;;;;5012145;28;20038;-60
2022/07/05 09:54:33;;;;;;;1.60;0.90;;;;;;;;;;5030818;28;20104;-61
2022/07/05 09:57:15;;;;;;;1.67;1.00;;;;;;;;;;5025187;28;20032;-60
2022/07/05 09:59:56;;;;;;;1.50;0.80;;;;;;;;;;5033980;28;20029;-60
2022/07/05 10:02:43;;;;;;;3.65;0.93;;;;;;;;;;5033778;28;20025;-60
2022/07/05 10:05:21;;;;;;;1.67;0.80;;;;;;;;;;5033165;28;20026;-60
2022/07/05 10:07:53;;;;;;;2.70;0.90;;;;;;;;;;5034096;28;20529;-60
2022/07/05 10:10:22;;;;;;;2.00;0.77;;;;;;;;;;5022260;28;20067;-60
2022/07/05 10:12:53;;;;;;;1.70;0.98;;;;;;;;;;5032720;28;20045;-60
2022/07/05 10:15:23;;;;;;;1.50;0.75;;;;;;;;;;5036509;28;20435;-60
2022/07/05 10:18:12;;;;;;;3.55;1.88;;;;;;;;;;5049239;28;20029;-60
2022/07/05 10:20:57;;;;;;;2.13;1.02;;;;;;;;;;5031885;28;20452;-60
2022/07/05 10:23:27;;;;;;;4.97;1.15;;;;;;;;;;5032046;28;20506;-59
2022/07/05 10:26:28;;;;;;;1.77;0.68;;;;;;;;;;5033463;28;20458;-60
2022/07/05 10:28:55;;;;;;;3.20;1.00;;;;;;;;;;5031766;28;20549;-60
2022/07/05 10:31:25;;;;;;;1.67;0.93;;;;;;;;;;5030601;28;20120;-60
2022/07/05 10:34:07;;;;;;;1.33;0.77;;;;;;;;;;5033520;28;20487;-60
2022/07/05 10:36:42;;;;;;;2.83;0.95;;;;;;;;;;5033345;28;20119;-60
2022/07/05 10:39:15;;;;;;;1.80;0.63;;;;;;;;;;5032016;28;20017;-60
2022/07/05 10:41:42;;;;;;;1.33;0.50;;;;;;;;;;5035722;28;20576;-60
2022/07/05 10:44:31;;;;;;;1.10;0.60;;;;;;;;;;5032308;28;20083;-60
2022/07/05 10:47:11;;;;;;;2.17;0.73;;;;;;;;;;5032176;28;20017;-59
2022/07/05 10:49:40;;;;;;;5.35;0.98;;;;;;;;;;5062853;28;20068;-59
2022/07/05 10:52:34;;;;;;;1.45;0.70;;;;;;;;;;5032626;28;20033;-58
2022/07/05 10:55:19;;;;;;;3.22;1.20;;;;;;;;;;5032620;28;20028;-59
2022/07/05 10:58:14;;;;;;;;;;;;;;;;;;;;;
2022/07/05 11:00:48;;;;;;;2.25;0.90;;;;;;;;;;5032116;28;20049;-59
2022/07/05 11:03:33;;;;;;;1.55;0.80;;;;;;;;;;5032969;28;20052;-59
2022/07/05 11:06:06;;;;;;;1.38;0.68;;;;;;;;;;5031762;28;20609;-58
2022/07/05 11:09:07;;;;;;;1.42;0.70;;;;;;;;;;5029100;28;20048;-59
2022/07/05 11:11:47;;;;;;;1.73;0.57;;;;;;;;;;4996697;28;20053;-59
2022/07/05 11:14:25;;;;;;;2.28;0.65;;;;;;;;;;5033367;28;20022;-58
2022/07/05 11:17:22;;;;;;;2.03;0.85;;;;;;;;;;5052554;28;20025;-59
2022/07/05 11:20:05;;;;;;;3.33;0.60;;;;;;;;;;5033668;28;20440;-59
2022/07/05 11:22:34;;;;;;;1.25;0.65;;;;;;;;;;5027874;28;20116;-59
2022/07/05 11:25:01;;;;;;;3.72;0.80;;;;;;;;;;5032105;28;20038;-59
2022/07/05 11:27:36;;;;;;;1.10;0.70;;;;;;;;;;5031200;28;20104;-59
2022/07/05 11:30:05;;;;;;;1.77;1.02;;;;;;;;;;5030075;28;20026;-59
2022/07/05 11:32:39;;;;;;;1.73;0.82;;;;;;;;;;5024596;28;20037;-59
2022/07/05 11:35:18;;;;;;;2.50;1.00;;;;;;;;;;5031239;28;20040;-59
2022/07/05 11:38:03;;;;;;;2.20;0.95;;;;;;;;;;5032218;28;20033;-59
2022/07/05 11:40:32;;;;;;;1.35;0.70;;;;;;;;;;5030192;28;20034;-59
2022/07/05 11:43:02;;;;;;;1.10;0.52;;;;;;;;;;5032469;28;20022;-59
2022/07/05 11:45:54;;;;;;;2.00;0.90;;;;;;;;;;5024937;28;20022;-59
2022/07/05 11:48:23;;;;;;;1.20;0.70;;;;;;;;;;5030680;28;20044;-59
2022/07/05 11:50:55;;;;;;;1.52;0.80;;;;;;;;;;5030342;28;20028;-59
2022/07/05 11:54:02;;;;;;;1.50;0.68;;;;;;;;;;5032240;28;20373;-59
2022/07/05 11:56:28;;;;;;;1.90;0.77;;;;;;;;;;5031796;28;20224;-59
2022/07/05 11:58:57;;;;;;;3.05;1.27;;;;;;;;;;5029935;28;20455;-59
2022/07/05 12:01:31;;;;;;;2.10;1.00;;;;;;;;;;5029912;28;20035;-59
2022/07/05 12:04:00;;;;;;;1.95;0.90;;;;;;;;;;5032280;28;20097;-59
2022/07/05 12:06:48;;;;;;;2.03;1.08;;;;;;;;;;5029634;28;20383;-59
2022/07/05 12:09:16;;;;;;;1.38;0.70;;;;;;;;;;5032039;28;20022;-59
2022/07/05 12:14:42;;;;;;;3.22;1.15;;;;;;;;;;5029734;28;20075;-59
2022/07/05 12:17:11;;;;;;;2.95;1.35;;;;;;;;;;5031717;28;20104;-59
2022/07/05 12:19:37;;;;;;;4.80;1.23;;;;;;;;;;5032239;28;20424;-59
2022/07/05 12:22:14;;;;;;;1.58;0.80;;;;;;;;;;5027070;28;20067;-59
2022/07/05 12:24:42;;;;;;;2.83;1.02;;;;;;;;;;5023678;28;20074;-59
2022/07/05 12:27:20;;;;;;;1.58;0.75;;;;;;;;;;5031713;28;20022;-59
2022/07/05 12:29:47;;;;;;;4.00;1.35;;;;;;;;;;5030571;28;20420;-59
2022/07/05 12:32:16;;;;;;;3.28;1.20;;;;;;;;;;5031717;28;20026;-59
2022/07/05 12:35:02;;;;;;;1.90;0.80;;;;;;;;;;5030743;28;20418;-59
2022/07/05 12:37:31;;;;;;;2.72;0.98;;;;;;;;;;5029247;28;20126;-59
2022/07/05 12:40:10;;;;;;;2.13;1.00;;;;;;;;;;5030692;28;20096;-59
2022/07/05 12:42:39;;;;;;;2.15;1.13;;;;;;;;;;5031775;28;20128;-59
2022/07/05 12:45:23;;;;;;;3.65;1.02;;;;;;;;;;5047278;28;20120;-58
2022/07/05 12:48:05;;;;;;;1.50;0.70;;;;;;;;;;5034730;28;20053;-59
2022/07/05 12:50:54;;;;;;;3.35;0.80;;;;;;;;;;5033991;28;20072;-59
2022/07/05 12:58:55;;;;;;;1.48;0.82;;;;;;;;;;5027833;28;20060;-59
2022/07/05 13:01:28;;;;;;;2.72;1.42;;;;;;;;;;5033412;28;20029;-59
2022/07/05 13:04:24;;;;;;;1.42;0.90;;;;;;;;;;5032305;28;20030;-59
2022/07/05 13:06:57;;;;;;;3.20;1.27;;;;;;;;;;5046473;28;20022;-59
2022/07/05 13:09:33;;;;;;;1.63;0.85;;;;;;;;;;5034030;28;20044;-59
2022/07/05 13:12:29;;;;;;;2.72;1.15;;;;;;;;;;5034363;28;20037;-59
2022/07/05 13:14:55;;;;;;;1.40;0.77;;;;;;;;;;5021159;28;20033;-58
2022/07/05 13:17:22;;;;;;;1.70;0.93;;;;;;;;;;5028751;28;20028;-59
2022/07/05 13:19:50;;;;;;;3.00;1.25;;;;;;;;;;5033737;28;20025;-59
2022/07/05 13:22:19;;;;;;;3.58;1.23;;;;;;;;;;5033918;28;20046;-59
2022/07/05 13:24:45;;;;;;;1.92;0.90;;;;;;;;;;5033740;28;20033;-59
2022/07/05 13:27:12;;;;;;;4.28;1.35;;;;;;;;;;5033421;28;20108;-59
2022/07/05 13:29:39;;;;;;;2.05;1.20;;;;;;;;;;5034810;28;20037;-59
2022/07/05 13:32:09;;;;;;;1.30;0.80;;;;;;;;;;5031994;28;20033;-59
2022/07/05 13:34:37;;;;;;;2.42;1.13;;;;;;;;;;5033046;28;20042;-59
2022/07/05 13:37:06;;;;;;;2.25;1.20;;;;;;;;;;5034633;28;20175;-59
2022/07/05 13:39:37;;;;;;;3.58;1.58;;;;;;;;;;5034700;28;20531;-59
2022/07/05 13:42:05;;;;;;;1.55;0.85;;;;;;;;;;5032795;28;20044;-59
2022/07/05 13:44:33;;;;;;;4.53;1.13;;;;;;;;;;5028472;28;20026;-59
2022/07/05 13:47:11;;;;;;;1.65;0.73;;;;;;;;;;5034117;28;20013;-59
2022/07/05 13:49:42;;;;;;;1.23;0.70;;;;;;;;;;5033670;28;20053;-59
2022/07/05 13:52:11;;;;;;;3.08;1.10;;;;;;;;;;5033893;28;20033;-59
2022/07/05 13:54:38;;;;;;;1.58;0.98;;;;;;;;;;5034052;28;20030;-59
2022/07/05 13:57:05;;;;;;;2.70;2.00;;;;;;;;;;5026756;28;20105;-59
2022/07/05 13:59:31;;;;;;;1.75;1.00;;;;;;;;;;5033917;28;20037;-59
2022/07/05 14:01:57;;;;;;;6.55;1.33;;;;;;;;;;5032105;28;20021;-59
2022/07/05 14:04:33;;;;;;;1.20;0.70;;;;;;;;;;5016698;28;20026;-59
2022/07/05 14:06:59;;;;;;;1.63;0.88;;;;;;;;;;5034275;28;20531;-59
2022/07/05 14:09:26;;;;;;;2.95;1.00;;;;;;;;;;5033452;28;20067;-59
2022/07/05 14:11:54;;;;;;;2.05;1.25;;;;;;;;;;5015563;28;20025;-59
2022/07/05 14:14:23;;;;;;;1.45;0.95;;;;;;;;;;5034483;28;20479;-59
2022/07/05 14:16:50;;;;;;;1.63;0.95;;;;;;;;;;5044090;28;20063;-59
2022/07/05 14:19:26;;;;;;;1.70;1.00;;;;;;;;;;5027154;28;20507;-59
2022/07/05 14:22:10;;;;;;;;;;;;;;;;;;;;;
2022/07/05 14:24:37;;;;;;;1.77;1.00;;;;;;;;;;5010090;28;20030;-59
2022/07/05 14:27:07;;;;;;;2.58;1.35;;;;;;;;;;5059301;28;20415;-59
2022/07/05 14:29:33;;;;;;;1.30;0.87;;;;;;;;;;5064431;28;20120;-59
2022/07/05 14:31:59;;;;;;;2.15;1.10;;;;;;;;;;5033020;28;20511;-59
2022/07/05 14:34:31;;;;;;;2.05;0.88;;;;;;;;;;5033878;28;20117;-59
2022/07/05 14:37:02;;;;;;;1.85;1.00;;;;;;;;;;5033361;28;20037;-59
2022/07/05 14:39:28;;;;;;;2.42;1.00;;;;;;;;;;5032666;28;20056;-59
2022/07/05 14:41:57;;;;;;;3.90;1.42;;;;;;;;;;5027264;28;20080;-59
2022/07/05 14:44:29;;;;;;;2.22;1.38;;;;;;;;;;5033480;28;20037;-59
2022/07/05 14:47:02;;;;;;;2.00;1.17;;;;;;;;;;5033445;28;20014;-59
2022/07/05 14:49:31;;;;;;;3.35;1.95;;;;;;;;;;5031996;28;20562;-59
2022/07/05 14:52:09;;;;;;;2.85;1.30;;;;;;;;;;5032581;28;20491;-59
2022/07/05 14:54:37;;;;;;;4.03;1.15;;;;;;;;;;5031429;28;20087;-59
2022/07/05 14:57:06;;;;;;;2.95;1.55;;;;;;;;;;5033114;28;20538;-59
2022/07/05 14:59:32;;;;;;;2.22;1.08;;;;;;;;;;5048738;28;20060;-59
2022/07/05 15:02:05;;;;;;;4.70;1.17;;;;;;;;;;5031877;28;20057;-58
2022/07/05 15:04:34;;;;;;;2.45;1.08;;;;;;;;;;5033343;28;20021;-59
2022/07/05 15:07:02;;;;;;;2.40;1.17;;;;;;;;;;5031731;28;20037;-59
2022/07/05 15:09:31;;;;;;;2.55;1.23;;;;;;;;;;5034715;28;20021;-59
2022/07/05 15:12:03;;;;;;;1.98;1.15;;;;;;;;;;5031894;28;20084;-59
2022/07/05 15:14:32;;;;;;;2.40;1.25;;;;;;;;;;5034002;28;20056;-59
2022/07/05 15:17:01;;;;;;;1.40;0.90;;;;;;;;;;5032654;28;20025;-59
2022/07/05 15:19:29;;;;;;;1.67;0.90;;;;;;;;;;5032681;28;20043;-59
2022/07/05 15:21:56;;;;;;;1.70;1.00;;;;;;;;;;5032117;28;20364;-59
2022/07/05 15:24:26;;;;;;;2.55;1.25;;;;;;;;;;5032705;28;20438;-59
2022/07/05 15:26:56;;;;;;;1.85;1.08;;;;;;;;;;5048611;28;20083;-59
2022/07/05 15:29:33;;;;;;;2.65;1.05;;;;;;;;;;5031528;28;20025;-59
2022/07/05 15:32:08;;;;;;;3.25;1.40;;;;;;;;;;5042778;28;20033;-59
2022/07/05 15:34:34;;;;;;;2.22;1.40;;;;;;;;;;5011647;28;20526;-59
2022/07/05 15:37:05;;;;;;;1.85;1.05;;;;;;;;;;5012630;28;20026;-59
2022/07/05 15:39:34;;;;;;;3.25;1.17;;;;;;;;;;5012804;28;20093;-59
2022/07/05 15:42:08;;;;;;;2.30;1.33;;;;;;;;;;5023372;28;20116;-59
2022/07/05 15:44:34;;;;;;;1.67;1.02;;;;;;;;;;5032526;28;20025;-59
2022/07/05 15:47:10;;;;;;;1.42;1.00;;;;;;;;;;5029859;28;20211;-59
2022/07/05 15:49:36;;;;;;;2.33;1.10;;;;;;;;;;5030476;28;20037;-59
2022/07/05 15:52:05;;;;;;;1.45;0.80;;;;;;;;;;5030276;28;20640;-59
2022/07/05 15:54:31;;;;;;;1.60;1.00;;;;;;;;;;5029270;28;20030;-59
2022/07/05 15:56:58;;;;;;;2.45;1.17;;;;;;;;;;5031404;28;20407;-59
2022/07/05 15:59:30;;;;;;;2.90;1.25;;;;;;;;;;5030554;28;20029;-59
2022/07/05 16:02:02;;;;;;;1.95;1.10;;;;;;;;;;5030090;28;20383;-59
2022/07/05 16:04:33;;;;;;;4.40;1.20;;;;;;;;;;5030778;28;20403;-59
2022/07/05 16:07:00;;;;;;;2.20;1.20;;;;;;;;;;5032369;28;20022;-59
2022/07/05 16:09:26;;;;;;;2.22;1.02;;;;;;;;;;5021350;28;20243;-59
2022/07/05 16:11:54;;;;;;;2.33;1.45;;;;;;;;;;5031120;28;20490;-59
2022/07/05 16:14:24;;;;;;;3.88;1.20;;;;;;;;;;5031969;28;20029;-59
2022/07/05 16:16:51;;;;;;;2.22;1.42;;;;;;;;;;5050309;28;20090;-59
2022/07/05 16:19:18;;;;;;;1.35;0.85;;;;;;;;;;5034276;28;20030;-59
2022/07/05 16:21:49;;;;;;;1.98;1.17;;;;;;;;;;5044619;28;20029;-59
2022/07/05 16:24:18;;;;;;;2.42;0.95;;;;;;;;;;5032036;28;20025;-59
2022/07/05 16:26:44;;;;;;;1.50;0.93;;;;;;;;;;5029168;28;20022;-59
2022/07/05 16:29:16;;;;;;;1.83;0.93;;;;;;;;;;5030253;28;20033;-59
2022/07/05 16:31:52;;;;;;;1.58;0.98;;;;;;;;;;5028660;28;20538;-59
2022/07/05 16:34:25;;;;;;;1.63;1.00;;;;;;;;;;5048201;28;20030;-59
2022/07/05 16:36:52;;;;;;;4.78;1.00;;;;;;;;;;5030585;28;20053;-59
2022/07/05 16:39:24;;;;;;;2.03;1.17;;;;;;;;;;5019843;28;20554;-59
2022/07/05 16:41:50;;;;;;;2.22;0.88;;;;;;;;;;5022071;28;20475;-59
2022/07/05 16:44:22;;;;;;;2.00;1.05;;;;;;;;;;5030504;28;20013;-59
2022/07/05 16:46:48;;;;;;;2.15;0.90;;;;;;;;;;5030281;28;20030;-59
2022/07/05 16:49:14;;;;;;;6.93;1.00;;;;;;;;;;5030408;28;20029;-59
2022/07/05 16:51:49;;;;;;;1.80;0.90;;;;;;;;;;5022986;28;20030;-59
2022/07/05 16:54:15;;;;;;;1.67;1.17;;;;;;;;;;5024457;28;20112;-59
2022/07/05 16:56:41;;;;;;;1.92;0.80;;;;;;;;;;5023920;28;20407;-59
2022/07/05 16:59:11;;;;;;;1.75;1.00;;;;;;;;;;5030011;28;20349;-59
2022/07/05 17:01:37;;;;;;;2.83;1.15;;;;;;;;;;5027773;28;20091;-59
2022/07/05 17:04:03;;;;;;;1.42;0.82;;;;;;;;;;5028508;28;20030;-59